Sonic Adventure (DX): Time Rankings

Records: Times | Rings | Scores | Races | Bosses | Freestyle
Leaders: Times | Rings | Scores | Races | Bosses | Freestyle | Overall
Rank Player Percent Points Date
1 Gamepro011 98.9% 61 06-08-21
2 Niczur 98.5% 86 06-08-21
3 Sonicspeedruner 98.0% 114 06-08-21
4 Nim 93.9% 359 06-08-21
5 Jawzun 93.7% 374 06-08-21
6 Dashjump 93.6% 376 06-08-21
7 DarkPolarNight 92.7% 432 06-08-21
8 drminus 90.5% 559 06-08-21
9 F-Man 90.4% 566 06-08-21
10 THC98 90.1% 586 06-08-21
11 ike6252 88.1% 702 06-08-21
12 Avento128bits 87.9% 718 06-08-21
13 francisco 87.3% 754 06-08-21
14 DarkspinesSonic 86.8% 780 06-08-21
15 ethmar 86.8% 782 06-08-21
16 Marth 86.7% 785 06-08-21
17 frankoredstrato 85.5% 860 06-08-21
18 chainchump 83.8% 958 06-08-21
19 TheRealShadnic 83.7% 965 06-08-21
20 Paragod 82.6% 1032 06-08-21
21 HyperSonic7701 82.4% 1045 06-08-21
22 Calfd 82.0% 1064 06-08-21
23 Coolfansonic 79.6% 1210 06-08-21
24 InferSaime 79.2% 1234 06-08-21
25 xXMegaManXx 77.9% 1312 06-08-21
26 Stefan 77.8% 1314 06-08-21
27 PfoSonic 77.3% 1345 06-08-21
28 bertin 75.6% 1445 06-08-21
29 yoshifan 75.3% 1467 06-08-21
30 Dave Cramer 73.5% 1570 06-08-21
31 RPGnutter 73.4% 1580 06-08-21
32 sonicam 71.8% 1673 06-08-21
33 Cybrax 71.4% 1697 06-08-21
34 Dekuboy 70.4% 1755 06-08-21
35 CoEmpathy 69.7% 1796 06-08-21
36 Ring Rush 68.9% 1842 06-08-21
37 mike89 68.1% 1894 06-08-21
38 NintenDan 67.9% 1904 06-08-21
39 chaos shadow 67.8% 1912 06-08-21
40 a_moustache 66.7% 1978 06-08-21
41 SkyLights 64.5% 2109 06-08-21
42 iden1 63.8% 2148 06-08-21
43 Combo 63.0% 2195 06-08-21
44 SADXTryHard 60.5% 2342 06-08-21
45 P1 Pause 60.2% 2364 06-08-21
46 WeegeeZV 58.8% 2442 06-08-21
47 Groudon199 58.3% 2473 06-08-21
48 AxlThunder 57.8% 2507 06-08-21
49 Game_Complete 57.4% 2526 06-08-21
50 Shadow Jacky 57.3% 2531 06-08-21
51 VMU Player Banned 56.5% 2581 06-08-21
52 Thorn 56.4% 2589 06-08-21
53 SB737 55.2% 2660 06-08-21
54 The Knuckles Chao 55.0% 2672 06-08-21
55 SadisticMystic 54.9% 2675 06-08-21
56 Chao_Fan 54.9% 2677 06-08-21
57 Mastakirby 54.3% 2710 06-08-21
57 Parax 54.3% 2710 06-08-21
59 OmegaDJ 53.8% 2743 06-08-21
60 KinkyCadence 53.7% 2747 06-08-21
61 mauserman 53.7% 2749 06-08-21
62 LittleBigness 53.6% 2753 06-08-21
63 Psyknux 53.3% 2770 06-08-21
64 Auriman1 53.1% 2781 06-08-21
65 magnum12 53.1% 2785 06-08-21
66 Turbos 52.7% 2810 06-08-21
67 GerbilSoft 52.0% 2851 06-08-21
68 GreatStar 51.6% 2874 06-08-21
69 Webber3000 51.2% 2894 06-08-21
70 Hipertails12 50.5% 2936 06-08-21
71 N 50.2% 2953 06-08-21
72 SPVLABS 49.2% 3018 06-08-21
73 James_Bertolli 48.3% 3067 06-08-21
74 Cream147 48.0% 3089 06-08-21
75 welldooder64 47.1% 3141 06-08-21
76 Skylace 46.9% 3154 06-08-21
77 Quartz 46.7% 3163 06-08-21
78 Omega Rafael Santos 46.7% 3166 06-08-21
79 Diamond 46.5% 3176 06-08-21
80 Psymar 46.5% 3178 06-08-21
81 SonicWinDX 45.7% 3223 06-08-21
82 teamblackarms 45.4% 3238 06-08-21
83 Cyan Ryan 44.9% 3273 06-08-21
84 Andrea Ritsu 44.8% 3277 06-08-21
85 buddychaos0415 44.6% 3291 06-08-21
86 SilverSonic 43.9% 3329 06-08-21
87 SilvertheAlmighty 43.5% 3352 06-08-21
88 paulie9990 43.4% 3358 06-08-21
89 sonicd5 43.4% 3359 06-08-21
90 metanightmare22 42.7% 3404 06-08-21
91 itsPersonnal 42.6% 3406 06-08-21
92 lordmetalsonic 40.5% 3533 06-08-21
93 Arch 40.1% 3553 06-08-21
94 videogamemaster777 39.3% 3604 06-08-21
95 Termon 39.1% 3616 06-08-21
96 supersonicfan 38.9% 3629 06-08-21
97 Zethor 38.7% 3641 06-08-21
98 Drakodan 38.2% 3670 06-08-21
99 LilZero 38.0% 3678 06-08-21
100 Kanimayo_Jp 37.9% 3686 06-08-21
101 supersonic465 37.8% 3691 06-08-21
102 FuzZerd 37.6% 3706 06-08-21
103 JamminX42 37.4% 3719 06-08-21
104 eggFL 37.2% 3728 06-08-21
105 BigAL49 36.9% 3745 06-08-21
106 Don 36.3% 3782 06-08-21
107 danieldude 36.3% 3783 06-08-21
108 Siavash Tazari 35.4% 3833 06-08-21
109 Zurggriff 35.3% 3842 06-08-21
110 Fr3nZy 35.1% 3853 06-08-21
111 f0rever_zer0 34.6% 3881 06-08-21
112 Cod4Scopes 34.1% 3910 06-08-21
113 LinksDarkArrows 33.5% 3945 06-08-21
114 Austinf 33.4% 3954 06-08-21
115 Therio 33.2% 3968 06-08-21
116 elecmouse101 32.8% 3991 06-08-21
117 Staf 32.5% 4009 06-08-21
118 MiStEr_ShAoLiN 32.1% 4030 06-08-21
119 ModifiedMonkee 31.8% 4046 06-08-21
120 R3FR4G 31.8% 4047 06-08-21
121 Twilisailor 31.7% 4053 06-08-21
122 videogamer1014 31.4% 4070 06-08-21
123 BrokenArthritis 31.3% 4079 06-08-21
124 Xia 30.9% 4104 06-08-21
125 AC-Tygo 30.8% 4109 06-08-21
126 welshmoose05 30.5% 4126 06-08-21
127 OddCook 30.1% 4152 06-08-21
128 The Great Lord Mick 29.7% 4175 06-08-21
129 Aitamen 29.2% 4203 06-08-21
130 Mcshuggets 29.0% 4215 06-08-21
131 Maxinfamily 28.9% 4219 06-08-21
132 Matt_TY 28.9% 4222 06-08-21
133 dabestgamer 28.5% 4243 06-08-21
134 joecoolgames 28.4% 4248 06-08-21
135 SuperBlitzCraig 28.0% 4275 06-08-21
136 Irregular Zero 27.9% 4279 06-08-21
137 Shadowthegreat 27.2% 4320 06-08-21
138 SuperSonic101 27.2% 4322 06-08-21
139 superjupi 27.2% 4325 06-08-21
140 Rolken 26.8% 4345 06-08-21
141 Hunters13 26.6% 4357 06-08-21
142 thewaytodawnnn 26.4% 4369 06-08-21
143 sonamyfan666 26.3% 4376 06-08-21
144 iarebored 26.0% 4391 06-08-21
145 koinu93 26.0% 4396 06-08-21
146 Spinballwizard 25.9% 4400 06-08-21
147 SaviourDC 25.8% 4408 06-08-21
147 SonicKnuckles 25.8% 4408 06-08-21
149 EngiNerd 24.9% 4460 06-08-21
150 adf 24.8% 4463 06-08-21
151 SonicAD 24.8% 4467 06-08-21
152 Pokemonmaster888 24.5% 4482 06-08-21
153 Megaman EXE565 23.9% 4518 06-08-21
154 The T 23.6% 4537 06-08-21
155 andy120195 23.5% 4544 06-08-21
156 Sonic Singularity 23.1% 4567 06-08-21
157 Platformer 22.8% 4585 06-08-21
158 timpkmn89 22.5% 4602 06-08-21
159 SeaWolf 22.4% 4605 06-08-21
160 Swift Hobo 22.2% 4620 06-08-21
161 Sondow 21.6% 4654 06-08-21
162 Rickyman48 21.3% 4675 06-08-21
163 KitsuneYamaro 21.1% 4685 06-08-21
164 FoxBoy 20.9% 4695 06-08-21
165 Sm4sh 20.8% 4703 06-08-21
166 TFEC Headshot 20.3% 4733 06-08-21
167 Jerzia 20.2% 4735 06-08-21
168 Kogen Player Banned 19.9% 4753 06-08-21
169 Badlex727 19.6% 4774 06-08-21
170 Starlight Sable 19.5% 4777 06-08-21
171 IsisDazs 19.0% 4811 06-08-21
172 HyperSonic64 18.8% 4822 06-08-21
173 Powerjohn25 18.7% 4825 06-08-21
174 crazy1993 18.6% 4834 06-08-21
175 andres430 18.4% 4842 06-08-21
175 Modest 18.4% 4842 06-08-21
177 SonicU260 17.5% 4898 06-08-21
178 MPit08 17.1% 4922 06-08-21
179 Swinkly 17.0% 4929 06-08-21
180 iSonicKid2K 16.3% 4969 06-08-21
181 dShadow 16.1% 4979 06-08-21
182 Cutiefox 15.8% 5000 06-08-21
183 Miles9999 15.6% 5013 06-08-21
184 Chawkk 15.5% 5019 06-08-21
185 Monkeh 15.4% 5021 06-08-21
186 Crispian 15.4% 5025 06-08-21
187 DaDude 14.9% 5051 06-08-21
188 Drflash55 14.6% 5068 06-08-21
189 Bass 14.4% 5083 06-08-21
190 Destroyer121121 14.2% 5092 06-08-21
191 Cruizer 14.2% 5095 06-08-21
192 Yish 14.1% 5102 06-08-21
193 zapp 14.1% 5103 06-08-21
194 neaolas 14.0% 5109 06-08-21
195 UninspiredUsername 13.8% 5118 06-08-21
196 superiorsonic 13.7% 5125 06-08-21
197 gamefreak1292 13.6% 5133 06-08-21
198 Cooljay 13.2% 5151 06-08-21
199 Sora_yx 13.0% 5163 06-08-21
200 Chaos_Overlord 12.5% 5198 06-08-21
201 Valfore 12.0% 5223 06-08-21
202 GarnetPrincess 11.9% 5233 06-08-21
203 Dage4Aquatic 11.7% 5240 06-08-21
204 soniccoloursunleashed 11.6% 5250 06-08-21
205 ShinigamiMachine 11.6% 5251 06-08-21
206 Sonicsuperstar1 11.1% 5279 06-08-21
207 FocusSight64 10.8% 5297 06-08-21
208 booo95 10.7% 5302 06-08-21
209 Werey 10.7% 5304 06-08-21
210 SirTobbii 10.5% 5314 06-08-21
211 Mo Player Banned 10.5% 5317 06-08-21
212 sonicspeed 10.4% 5323 06-08-21
213 Jua Rever 10.3% 5325 06-08-21
214 Venick409 9.5% 5373 06-08-21
215 nman36 9.4% 5381 06-08-21
215 Sithwarrior26 9.4% 5381 06-08-21
217 CyberShadow 8.8% 5413 06-08-21
218 ingx24 8.8% 5414 06-08-21
219 dekki1234 8.6% 5426 06-08-21
220 Fozer 8.3% 5443 06-08-21
221 Egor305 8.2% 5448 06-08-21
222 Colomb_30 8.1% 5455 06-08-21
223 Regano1000 8.1% 5456 06-08-21
224 1stKirbyever 7.9% 5467 06-08-21
225 nuckrieg 7.7% 5481 06-08-21
226 TimTH 7.6% 5485 06-08-21
227 Brian_pso 7.5% 5493 06-08-21
228 douglas 7.4% 5501 06-08-21
229 TakaRikka 7.2% 5510 06-08-21
230 Th4tN1nj4Turtl3 7.2% 5513 06-08-21
231 Zip 7.1% 5514 06-08-21
232 wheatrich 6.9% 5530 06-08-21
233 Mariosonic15 6.8% 5537 06-08-21
234 ieatatsonic 6.5% 5552 06-08-21
234 MStitomix 6.5% 5552 06-08-21
236 niscool 6.5% 5553 06-08-21
237 HermitHelmet 6.4% 5556 06-08-21
238 Cort_pso 6.1% 5574 06-08-21
239 Got4n 6.1% 5577 06-08-21
240 ArthurVGCP 6.0% 5580 06-08-21
241 Triseena 6.0% 5581 06-08-21
242 Jose_15 5.8% 5592 06-08-21
243 Artie 5.6% 5603 06-08-21
244 SuperSonicfan9595 5.6% 5606 06-08-21
245 BlankTH 5.6% 5607 06-08-21
246 Ace747 5.4% 5619 06-08-21
247 HHNNBBHHN 5.3% 5621 06-08-21
248 Richied 5.2% 5629 06-08-21
249 Paixii 5.2% 5632 06-08-21
250 Aiko 5.1% 5634 06-08-21
251 BallzeH 4.8% 5653 06-08-21
251 FSSRandomvids 4.8% 5653 06-08-21
253 slade23 4.8% 5654 06-08-21
254 Jamixesa 4.7% 5656 06-08-21
255 PsyBorg 4.7% 5658 06-08-21
256 ArcticDragon 4.7% 5660 06-08-21
256 Mankster101 4.7% 5660 06-08-21
258 BecauseWarAnvil 4.6% 5663 06-08-21
259 Xandre69 4.5% 5668 06-08-21
260 Nickson98 4.5% 5672 06-08-21
261 Crydio 4.4% 5676 06-08-21
262 TheUltraBlur 4.4% 5678 06-08-21
263 MarewBFN 4.2% 5691 06-08-21
264 stanski 4.1% 5696 06-08-21
265 tal39h 4.0% 5699 06-08-21
266 knuckles_sonic8 3.9% 5708 06-08-21
267 Blue Infamy 3.8% 5713 06-08-21
268 ALundstrom10 3.8% 5714 06-08-21
268 p0ker 3.8% 5714 06-08-21
270 ErrortheCucco 3.6% 5724 06-08-21
271 Rikum22 3.6% 5727 06-08-21
272 sonic1001 3.4% 5735 06-08-21
273 AJSIV 3.4% 5738 06-08-21
273 TheChaosEmeraIds 3.4% 5738 06-08-21
275 syco1098 3.3% 5741 06-08-21
276 IDGeek121 3.3% 5743 06-08-21
276 Sonic the Hedgehod16 3.3% 5743 06-08-21
278 ASINISTERTACO 3.1% 5751 06-08-21
279 sonicfan9 3.0% 5758 06-08-21
280 themachoman202 2.9% 5768 06-08-21
281 MK 2.8% 5771 06-08-21
282 Fivavoa 2.7% 5777 06-08-21
283 Mr. Jones 2.7% 5779 06-08-21
284 djmat 2.6% 5781 06-08-21
285 arcfx1985 2.6% 5782 06-08-21
285 BlackArmsShadow 2.6% 5782 06-08-21
287 Sonique Hedgehog 2.6% 5783 06-08-21
288 FlandreScarlet9999vr 2.5% 5788 06-08-21
288 ptorflaxendrosis 2.5% 5788 06-08-21
290 Zeldocto 2.5% 5792 06-08-21
291 BeeAwwb 2.4% 5796 06-08-21
292 KaM Mark MaK 2.3% 5801 06-08-21
293 ShadouZaHejjihoggu 2.3% 5803 06-08-21
294 darkstarblaze 2.2% 5810 06-08-21
295 Sonic The Star 2.1% 5812 06-08-21
296 darkersupershadic 2.1% 5813 06-08-21
297 SpiritDragon1995 2.1% 5814 06-08-21
298 sonic29887 2.0% 5820 06-08-21
299 Sarger001 2.0% 5821 06-08-21
300 Grady219 2.0% 5822 06-08-21
301 Jawaah 1.9% 5827 06-08-21
301 shadowblast63 Player Banned 1.9% 5827 06-08-21
303 Antek 1.8% 5831 06-08-21
304 Klaus 1.8% 5833 06-08-21
305 BioShadow 1.6% 5841 06-08-21
306 IcKY 1.5% 5849 06-08-21
307 isaihtb11 1.4% 5856 06-08-21
307 SkyBon 1.4% 5856 06-08-21
309 Shanekilz 1.4% 5857 06-08-21
310 OhNoes! 1.3% 5861 06-08-21
311 zaktu40 1.3% 5863 06-08-21
312 gaara1234 1.2% 5866 06-08-21
312 S-MS32X-S 1.2% 5866 06-08-21
314 MastaToken 1.1% 5874 06-08-21
315 Mister_Slick 1.0% 5877 06-08-21
316 Sonic06Fan 1.0% 5881 06-08-21
317 Rush Hero 0.9% 5883 06-08-21
318 ChaosNexuss 0.9% 5884 06-08-21
319 oTaiIilLsS 0.9% 5887 06-08-21
320 SonicMega167 0.8% 5889 06-08-21
321 SilverK 0.8% 5890 06-08-21
322 gamed00d 0.8% 5892 06-08-21
323 Burningskull123 0.5% 5908 06-08-21
324 Heroes_Hater 0.5% 5911 06-08-21
325 Sonicontherun 0.3% 5920 06-08-21
326 antiwwe 0.2% 5926 06-08-21
327 Iwannabelink 0.2% 5928 06-08-21
328 Genuine Hedgehog 0.1% 5930 06-08-21
329 dragondragon18 0.1% 5934 06-08-21
330 SonicK100 0.1% 5935 06-08-21
331 Tyrouble 0.0% 5940 06-08-21
332 LancexExWx 0.0% 5941 06-08-21
332 neji_hyuuga 0.0% 5941 06-08-21
332 Over 0.0% 5941 06-08-21
332 sdj6707 Player Banned 0.0% 5941 06-08-21
332 Tran Sonic Fan Player Banned 0.0% 5941 06-08-21

This page is using the New Data Table System. [FUTURE]

Game ID: 3 | Category ID: 1
Hits: 10,432 | Hits This Month: 41 | DB Calls: 24 | Mem Usage: 1.11 MB | Time: 0.04s | Printable

The Sonic Center v3.9
Copyright 2003-2011 by The Sonic Center Team.